Terminal Aerodrome Forecast
Issued by NWS Sterling, VA

Home | Current Version | Previous Version | Text Only | Print | Product List | Glossary On
Versions: 1 2 3 4 5 6 7 8 9 10 11 12 13 14 15 16 17 18 19 20 21 22 23
165
FTUS41 KLWX 270527
TAFCHO
TAF
KCHO 270527Z 2706/2806 21004KT 3SM -SHRA BR BKN020 OVC050
     FM270700 VRB03KT 5SM -SHRA BR BKN008 OVC050
     FM271000 VRB03KT P6SM BKN025 OVC050
     FM271300 VRB03KT P6SM BKN050 BKN130
     FM271700 15004KT P6SM SCT200
     FM280000 VRB03KT P6SM BKN050=

USA.gov is the U.S. government's official web portal to all federal, state and local government web resources and services.